createdAt,value
2022-12-03T00:03:25.937Z,50.10
2022-12-03T00:08:29.474Z,49.10
2022-12-03T00:13:32.902Z,43.72
2022-12-03T00:18:37.677Z,41.88
2022-12-03T00:23:42.499Z,42.75
2022-12-03T00:28:46.108Z,43.50
2022-12-03T00:33:51.506Z,48.78
2022-12-03T00:38:54.908Z,49.03
2022-12-03T00:43:58.324Z,47.70
2022-12-03T00:49:03.338Z,46.33
2022-12-03T00:54:06.736Z,47.65
2022-12-03T00:59:10.240Z,46.20
2022-12-03T01:04:15.043Z,47.10
2022-12-03T01:09:18.464Z,47.78
2022-12-03T01:14:22.030Z,45.22
2022-12-03T01:19:26.990Z,51.70
2022-12-03T01:24:30.858Z,44.05
2022-12-03T01:29:34.293Z,42.35
2022-12-03T01:34:39.166Z,52.28
2022-12-03T01:39:43.226Z,47.50
2022-12-03T01:44:47.551Z,46.10
2022-12-03T01:49:55.530Z,50.47
2022-12-03T01:55:01.780Z,46.65
2022-12-03T02:00:06.428Z,44.03
2022-12-03T02:05:17.965Z,45.30
2022-12-03T02:10:26.524Z,45.90
2022-12-03T02:15:30.093Z,45.30
2022-12-03T02:20:39.937Z,46.70
2022-12-03T02:25:44.718Z,42.80
2022-12-03T02:30:48.202Z,48.10
2022-12-03T02:35:51.923Z,44.85
2022-12-03T02:41:00.471Z,51.70
2022-12-03T02:46:05.647Z,46.97
2022-12-03T02:51:11.181Z,45.42
2022-12-03T02:56:19.705Z,46.30
2022-12-03T03:01:23.313Z,46.63
2022-12-03T03:06:26.815Z,54.05
2022-12-03T03:11:31.910Z,44.22
2022-12-03T03:16:35.538Z,44.13
2022-12-03T03:21:38.991Z,52.08
2022-12-03T03:26:43.743Z,48.03
2022-12-03T03:31:48.271Z,51.05
2022-12-03T03:36:51.865Z,46.42
2022-12-03T03:41:56.722Z,43.28
2022-12-03T03:47:00.988Z,49.95
2022-12-03T03:52:04.965Z,41.92
2022-12-03T03:57:09.730Z,44.63
2022-12-03T04:02:20.164Z,41.85
2022-12-03T04:07:23.618Z,49.90
2022-12-03T04:12:45.754Z,47.72
2022-12-03T04:18:09.704Z,45.22
2022-12-03T04:23:13.523Z,43.00
2022-12-03T04:28:35.873Z,41.20
2022-12-03T04:33:56.727Z,43.85
2022-12-03T04:39:00.174Z,45.28
2022-12-03T04:44:22.230Z,45.13
2022-12-03T04:49:25.680Z,45.85
2022-12-03T04:54:29.678Z,46.35
2022-12-03T04:59:35.058Z,50.05
2022-12-03T05:04:39.017Z,51.22
2022-12-03T05:09:42.468Z,48.20
2022-12-03T05:14:47.235Z,46.55
2022-12-03T05:20:08.044Z,50.78
2022-12-03T05:25:11.692Z,52.58
2022-12-03T05:30:16.740Z,46.95
2022-12-03T05:35:20.133Z,49.95
2022-12-03T05:40:23.809Z,54.13
2022-12-03T05:45:30.886Z,47.90
2022-12-03T05:50:36.843Z,47.72
2022-12-03T05:55:40.410Z,59.95
2022-12-03T06:00:45.137Z,53.60
2022-12-03T06:05:48.530Z,50.13
2022-12-03T06:10:52.530Z,47.95
2022-12-03T06:15:57.338Z,49.78
2022-12-03T06:21:00.962Z,55.13
2022-12-03T06:26:04.427Z,56.72
2022-12-03T06:31:09.330Z,52.85
2022-12-03T06:36:13.642Z,55.33
2022-12-03T06:41:17.387Z,50.08
2022-12-03T06:46:22.229Z,49.05
2022-12-03T06:51:25.686Z,49.58
2022-12-03T06:56:35.060Z,49.92
2022-12-03T07:01:41.745Z,51.67
2022-12-03T07:06:45.220Z,48.42
2022-12-03T07:11:48.605Z,50.58
2022-12-03T07:16:53.320Z,59.63
2022-12-03T07:21:56.723Z,52.90
2022-12-03T07:27:00.104Z,47.00
2022-12-03T07:32:05.103Z,56.50
2022-12-03T07:37:08.613Z,57.03
2022-12-03T07:42:12.221Z,54.25
2022-12-03T07:47:17.181Z,45.95
2022-12-03T07:52:21.947Z,44.10
2022-12-03T07:57:25.358Z,50.25
2022-12-03T08:02:30.219Z,49.90
2022-12-03T08:07:33.782Z,46.22
2022-12-03T08:12:42.643Z,51.13
2022-12-03T08:17:51.480Z,46.67
2022-12-03T08:22:56.993Z,53.22
2022-12-03T08:28:09.031Z,49.55
2022-12-03T08:33:21.529Z,46.10
2022-12-03T08:38:26.258Z,36.17
2022-12-03T08:43:35.935Z,52.67
2022-12-03T08:48:45.437Z,51.97
2022-12-03T08:53:59.782Z,55.53
2022-12-03T08:59:22.495Z,58.05
2022-12-03T09:04:31.958Z,52.00
2022-12-03T09:09:35.577Z,58.25
2022-12-03T09:14:38.942Z,68.00
2022-12-03T09:19:46.195Z,57.47
2022-12-03T09:24:49.927Z,57.42
2022-12-03T09:29:53.386Z,58.85
2022-12-03T09:34:58.083Z,54.88
2022-12-03T09:40:01.510Z,59.28
2022-12-03T09:45:11.039Z,58.35
2022-12-03T09:50:18.067Z,56.30
2022-12-03T09:55:24.548Z,64.22
2022-12-03T10:00:30.767Z,58.67
2022-12-03T10:05:36.024Z,60.15
2022-12-03T10:10:41.543Z,63.70
2022-12-03T10:15:45.003Z,68.97
2022-12-03T10:20:50.717Z,68.45
2022-12-03T10:25:56.901Z,74.65
2022-12-03T10:31:01.233Z,68.40
2022-12-03T10:36:18.412Z,64.70
2022-12-03T10:41:24.141Z,91.28
2022-12-03T10:46:27.901Z,75.90
2022-12-03T10:51:32.738Z,66.55
2022-12-03T10:56:36.186Z,66.30
2022-12-03T11:01:39.676Z,68.50
2022-12-03T11:06:44.425Z,63.55
2022-12-03T11:11:48.220Z,63.05
2022-12-03T11:17:09.914Z,59.30
2022-12-03T11:22:47.238Z,59.25
2022-12-03T11:28:26.330Z,62.97
2022-12-03T11:33:31.733Z,64.50
2022-12-03T11:39:02.826Z,67.82
2022-12-03T11:44:31.496Z,64.63
2022-12-03T11:49:38.878Z,64.35
2022-12-03T11:54:43.894Z,64.85
2022-12-03T12:00:14.429Z,60.90
2022-12-03T12:05:25.713Z,63.67
2022-12-03T12:10:41.660Z,64.28
2022-12-03T12:15:45.751Z,61.88
2022-12-03T12:20:49.186Z,67.05
2022-12-03T12:25:54.472Z,65.70
2022-12-03T12:30:58.619Z,64.00
2022-12-03T12:36:06.676Z,70.47
2022-12-03T12:41:12.371Z,61.97
2022-12-03T12:46:46.653Z,66.75
2022-12-03T12:51:44.722Z,65.88
2022-12-03T12:56:51.358Z,70.63
2022-12-03T13:01:54.765Z,69.30
2022-12-03T13:06:58.162Z,67.63
2022-12-03T13:12:04.480Z,64.95
2022-12-03T13:17:15.420Z,70.75
2022-12-03T13:22:21.944Z,75.57
2022-12-03T13:27:30.555Z,74.30
2022-12-03T13:32:37.110Z,74.40
2022-12-03T13:37:40.616Z,74.10
2022-12-03T13:42:46.626Z,67.97
2022-12-03T13:47:54.232Z,68.35
2022-12-03T13:52:58.701Z,73.13
2022-12-03T13:58:03.851Z,68.53
2022-12-03T14:03:07.283Z,64.80
2022-12-03T14:08:10.705Z,68.70
2022-12-03T14:13:15.756Z,74.80
2022-12-03T14:18:19.268Z,63.88
2022-12-03T14:23:22.868Z,65.65
2022-12-03T14:28:27.626Z,59.20
2022-12-03T14:33:30.978Z,61.78
2022-12-03T14:38:34.360Z,60.13
2022-12-03T14:43:39.106Z,62.40
2022-12-03T14:48:42.456Z,58.50
2022-12-03T14:53:46.231Z,56.17
2022-12-03T14:58:51.103Z,55.40
2022-12-03T15:03:54.685Z,61.05
2022-12-03T15:08:58.091Z,57.65
2022-12-03T15:14:02.815Z,65.25
2022-12-03T15:19:06.240Z,56.97
2022-12-03T15:24:10.397Z,59.05
2022-12-03T15:29:15.151Z,58.17
2022-12-03T15:34:22.625Z,62.13
2022-12-03T15:39:26.629Z,63.95
2022-12-03T15:44:31.361Z,66.93
2022-12-03T15:49:34.740Z,62.00
2022-12-03T15:54:38.595Z,61.50
2022-12-03T15:59:43.763Z,60.92
2022-12-03T16:04:47.155Z,63.88
2022-12-03T16:09:50.983Z,58.22
2022-12-03T16:14:55.760Z,62.80
2022-12-03T16:19:59.163Z,64.47
2022-12-03T16:25:03.244Z,65.68
2022-12-03T16:30:09.682Z,57.92
2022-12-03T16:35:13.597Z,63.92
2022-12-03T16:40:17.013Z,69.38
2022-12-03T16:45:54.427Z,66.65
2022-12-03T16:50:58.840Z,75.55
2022-12-03T16:56:04.903Z,67.45
2022-12-03T17:01:11.163Z,66.88
2022-12-03T17:06:15.655Z,67.78
2022-12-03T17:11:20.116Z,64.70
2022-12-03T17:16:25.730Z,71.57
2022-12-03T17:21:34.859Z,76.35
2022-12-03T17:26:45.399Z,79.95
2022-12-03T17:31:51.157Z,79.75
2022-12-03T17:36:58.247Z,86.20
2022-12-03T17:42:01.680Z,86.05
2022-12-03T17:47:06.834Z,79.70
2022-12-03T17:52:10.227Z,91.97
2022-12-03T17:57:13.873Z,93.47
2022-12-03T18:02:19.002Z,89.53
2022-12-03T18:07:22.517Z,82.75
2022-12-03T18:12:25.985Z,88.53
2022-12-03T18:17:30.752Z,96.22
2022-12-03T18:22:34.625Z,92.00
2022-12-03T18:27:38.068Z,93.13
2022-12-03T18:32:42.835Z,90.93
2022-12-03T18:37:46.259Z,90.40
2022-12-03T18:42:49.732Z,93.93
2022-12-03T18:47:54.931Z,94.05
2022-12-03T18:52:58.543Z,91.40
2022-12-03T18:58:02.855Z,90.65
2022-12-03T19:03:07.870Z,103.90
2022-12-03T19:08:14.860Z,98.93
2022-12-03T19:13:18.589Z,100.32
2022-12-03T19:18:24.219Z,94.25
2022-12-03T19:23:32.579Z,107.70
2022-12-03T19:28:37.233Z,101.30
2022-12-03T19:33:46.325Z,110.78
2022-12-03T19:38:56.625Z,101.95
2022-12-03T19:44:07.823Z,102.32
2022-12-03T19:49:16.740Z,99.88
2022-12-03T19:54:30.744Z,99.45
2022-12-03T19:59:34.496Z,98.60
2022-12-03T20:04:41.474Z,94.82
2022-12-03T20:09:45.195Z,104.57
2022-12-03T20:14:52.151Z,90.25
2022-12-03T20:19:57.666Z,102.53
2022-12-03T20:25:03.711Z,104.10
2022-12-03T20:30:08.313Z,102.32
2022-12-03T20:35:13.088Z,98.40
2022-12-03T20:40:19.508Z,101.50
2022-12-03T20:45:27.011Z,91.43
2022-12-03T20:50:32.084Z,102.70
2022-12-03T20:55:38.001Z,90.18
2022-12-03T21:00:41.812Z,99.63
2022-12-03T21:05:47.592Z,101.78
2022-12-03T21:10:51.669Z,85.72
2022-12-03T21:16:04.853Z,91.05
2022-12-03T21:21:13.982Z,90.80
2022-12-03T21:26:19.649Z,90.22
2022-12-03T21:31:32.450Z,95.40
2022-12-03T21:36:37.335Z,100.28
2022-12-03T21:41:40.768Z,97.72
2022-12-03T21:47:09.562Z,106.15
2022-12-03T21:52:18.138Z,104.87
2022-12-03T21:57:21.776Z,103.22
2022-12-03T22:02:25.412Z,101.63
2022-12-03T22:07:33.087Z,99.43
2022-12-03T22:12:40.794Z,102.88
2022-12-03T22:17:44.207Z,96.32
2022-12-03T22:22:49.284Z,89.93
2022-12-03T22:27:52.761Z,89.28
2022-12-03T22:32:56.134Z,96.70
2022-12-03T22:38:00.899Z,100.07
2022-12-03T22:43:04.311Z,94.53
2022-12-03T22:48:08.167Z,100.28
2022-12-03T22:53:13.026Z,101.95
2022-12-03T22:58:16.447Z,95.38
2022-12-03T23:03:20.315Z,107.28
2022-12-03T23:08:25.134Z,104.53
2022-12-03T23:13:28.837Z,96.30
2022-12-03T23:18:32.488Z,89.35
2022-12-03T23:23:37.223Z,89.13
2022-12-03T23:28:42.948Z,86.78
2022-12-03T23:33:47.191Z,88.20
2022-12-03T23:38:52.028Z,80.15
2022-12-03T23:43:55.849Z,82.82
2022-12-03T23:49:00.260Z,86.18
2022-12-03T23:54:05.269Z,89.20
2022-12-03T23:59:08.683Z,89.88
